Flight Track Log - Related Links

Times and Time Zones

All times are in EST time to prevent confusion due to time zone crossing. See the SKW4664 flight status page for this flight to view local times or setup timezone preferences in your user account.


Time Position Orientation Groundspeed Altitude Reporting Facility
EST Latitude Longitude Course Direction KTS MPH feet Rate Location/Type
Sun 09:03:42 AM 44.9333 -93.2333 122° Southeast 199 229 3,200  Level Minneapolis TRACON
Sun 09:04:50 AM 44.9889 -93.1753 36° Northeast 242 278 6,000 2,884 Climbing Minneapolis Center
Sun 09:05:51 AM 45.0292 -93.0844 58° Northeast 282 325 9,400 3,148 Climbing Minneapolis Center
Sun 09:06:00 AM 44.7047 -92.5508 130° Southeast  Level Estimated
Sun 09:06:52 AM 44.9925 -92.9797 116° Southeast 305 351 12,400  Level Minneapolis Center
Sun 09:07:00 AM 44.6598 -92.3837 123° Southeast  Level Estimated
Sun 09:07:53 AM 44.9356 -92.8772 128° Southeast 327 376 14,800  Level Minneapolis Center
Sun 09:08:00 AM 44.6146 -92.2169 144° Southeast  Level Estimated
Sun 09:08:54 AM 44.8708 -92.7619 128° Southeast 369 425 16,600  Level Minneapolis Center
Sun 09:09:00 AM 44.5692 -92.0503 122° Southeast  Level Estimated
Sun 09:09:55 AM 44.7997 -92.6369 129° Southeast 401 461 18,300  Level Minneapolis Center
Sun 09:10:57 AM 44.7253 -92.5072 129° Southeast 417 480 20,300 1,951 Climbing Minneapolis Center
Sun 09:11:58 AM 44.6486 -92.3728 129° Southeast 433 498 22,300 2,066 Climbing Minneapolis Center
Sun 09:12:59 AM 44.5542 -92.2083 129° Southeast 447 514 24,500 1,869 Climbing Minneapolis Center
Sun 09:14:00 AM 44.4981 -92.0433 115° Southeast 465 535 26,100 1,574 Climbing Minneapolis Center
Sun 09:15:01 AM 44.4411 -91.8778 116° Southeast 472 543 27,700 1,574 Climbing Minneapolis Center
Sun 09:16:02 AM 44.3819 -91.7108 116° Southeast 477 549 29,300 1,623 Climbing Minneapolis Center
Sun 09:17:03 AM 44.3239 -91.5428 116° Southeast 480 552 31,000 1,623 Climbing Minneapolis Center
Sun 09:18:04 AM 44.2650 -91.3750 116° Southeast 482 555 32,600 1,623 Climbing Minneapolis Center
Sun 09:19:05 AM 44.2033 -91.1953 116° Southeast 478 550 34,300 1,525 Climbing Minneapolis Center
Sun 09:20:06 AM 44.1450 -91.0331 117° Southeast 473 544 35,700 1,131 Climbing Minneapolis Center
Sun 09:21:07 AM 44.0878 -90.8736 117° Southeast 467 537 36,600 934 Climbing Minneapolis Center
Sun 09:22:08 AM 44.0297 -90.7111 116° Southeast 470 541 37,600 885 Climbing Minneapolis Center
Sun 09:23:09 AM 43.9703 -90.5447 116° Southeast 471 542 38,400 689 Climbing Minneapolis Center
Sun 09:24:10 AM 43.9119 -90.3822 116° Southeast 473 544 39,000 295 Climbing Minneapolis Center
Sun 09:25:11 AM 43.8519 -90.2183 117° Southeast 477 549 39,000  Level Minneapolis Center
Sun 09:26:12 AM 43.7881 -90.0483 117° Southeast 496 571 39,000  Level Minneapolis Center
Sun 09:27:13 AM 43.7436 -89.8622 108° East 509 586 39,000  Level Minneapolis Center
Sun 09:28:14 AM 43.7011 -89.6756 107° East 510 587 39,000  Level Minneapolis Center
Sun 09:29:15 AM 43.6567 -89.4886 108° East 513 590 39,000  Level Minneapolis Center
Sun 09:30:16 AM 43.6128 -89.3028 108° East 512 589 39,000  Level Minneapolis Center
Sun 09:31:17 AM 43.5592 -89.0811 108° East 510 587 39,000  Level Minneapolis Center
Sun 09:32:18 AM 43.5150 -88.8981 108° East 506 582 39,000  Level Minneapolis Center
Sun 09:33:20 AM 43.4703 -88.7142 108° East 509 586 39,000  Level Minneapolis Center
Sun 09:34:21 AM 43.4244 -88.5258 108° East 509 586 39,000  Level Minneapolis Center
Sun 09:35:22 AM 43.3800 -88.3486 109° East 510 587 39,000  Level Minneapolis Center
Sun 09:36:23 AM 43.3308 -88.1475 109° East 500 575 39,000  Level Minneapolis Center
Sun 09:37:24 AM 43.2858 -87.9678 109° East 500 575 39,000  Level Minneapolis Center
Sun 09:37:54 AM 43.2686 -87.8969 108° East 497 572 39,000  Level Chicago Center
Sun 09:38:56 AM 43.2242 -87.7208 109° East 493 567 39,000  Level Chicago Center
Sun 09:39:58 AM 43.1794 -87.5431 109° East 493 567 39,000  Level Chicago Center
Sun 09:41:00 AM 43.1322 -87.3544 109° East 491 565 39,000  Level Chicago Center
Sun 09:42:02 AM 43.0867 -87.1781 109° East 492 566 39,000  Level Chicago Center
Sun 09:43:04 AM 43.0411 -87.0039 110° East 490 564 39,000  Level Chicago Center
Sun 09:44:06 AM 42.9869 -86.7953 109° East 488 562 39,000  Level Chicago Center
Sun 09:45:08 AM 42.9408 -86.6217 110° East 489 563 39,000  Level Chicago Center
Sun 09:46:10 AM 42.8947 -86.4489 110° East 488 562 39,000  Level Chicago Center
Sun 09:47:12 AM 42.8481 -86.2775 110° East 488 562 39,000  Level Chicago Center
Sun 09:48:14 AM 42.7925 -86.0708 110° East 492 566 39,000  Level Chicago Center
Sun 09:49:16 AM 42.7469 -85.9000 110° East 490 564 39,000  Level Chicago Center
Sun 09:50:18 AM 42.7000 -85.7281 110° East 491 565 39,000  Level Chicago Center
Sun 09:51:20 AM 42.6522 -85.5558 111° Southeast 491 565 39,000  Level Chicago Center
Sun 09:52:22 AM 42.6050 -85.3828 110° East 492 566 39,000  Level Chicago Center
Sun 09:53:24 AM 42.5478 -85.1767 111° Southeast 490 564 39,000  Level Chicago Center
Sun 09:54:26 AM 42.4986 -85.0042 111° Southeast 491 565 39,000  Level Chicago Center
Sun 09:55:28 AM 42.4500 -84.8331 111° Southeast 489 563 39,000  Level Chicago Center
Sun 09:56:30 AM 42.4017 -84.6614 111° Southeast 490 564 39,000  Level Chicago Center
Sun 09:57:31 AM 42.3533 -84.4897 111° Southeast 490 564 39,000 -293 Level Chicago Center
Sun 09:58:33 AM 42.3036 -84.3203 112° Southeast 490 564 38,400 -871 Descending Chicago Center
Sun 09:59:35 AM 42.2447 -84.1153 111° Southeast 489 563 37,200 -1,016 Descending Chicago Center
Sun 10:00:37 AM 42.1953 -83.9458 111° Southeast 486 559 36,300 -968 Descending Chicago Center
Sun 10:01:39 AM 42.1458 -83.7789 112° Southeast 482 555 35,200 -1,056 Descending Chicago Center
Sun 10:02:59 AM 42.0767 -83.5536 112° Southeast 470 541 33,800 -936 Descending Cleveland Center
Sun 10:04:00 AM 42.0158 -83.3981 118° Southeast 467 537 33,000 -390 Descending Cleveland Center
Sun 10:05:02 AM 41.9422 -83.2575 125° Southeast 457 526 33,000  Level Cleveland Center
Sun 10:06:04 AM 41.8725 -83.1247 125° Southeast 466 536 33,000  Level Cleveland Center
Sun 10:07:06 AM 41.7944 -82.9772 125° Southeast 481 554 33,000 -194 Level Cleveland Center
Sun 10:08:08 AM 41.7008 -82.7983 125° Southeast 490 564 32,600 -629 Descending Cleveland Center
Sun 10:09:10 AM 41.6272 -82.6617 126° Southeast 494 568 31,700 -919 Descending Cleveland Center
Sun 10:10:12 AM 41.5583 -82.5006 120° Southeast 493 567 30,700 -1,065 Descending Cleveland Center
Sun 10:11:14 AM 41.4914 -82.3050 115° Southeast 492 566 29,500 -1,065 Descending Cleveland Center
Sun 10:12:16 AM 41.4344 -82.1392 115° Southeast 488 562 28,500 -1,016 Descending Cleveland Center
Sun 10:13:18 AM 41.3756 -81.9703 115° Southeast 481 554 27,400 -1,016 Descending Cleveland Center
Sun 10:14:20 AM 41.3208 -81.8114 115° Southeast 475 547 26,400 -1,065 Descending Cleveland Center
Sun 10:15:22 AM 41.2664 -81.6544 115° Southeast 470 541 25,200 -1,161 Descending Cleveland Center
Sun 10:16:24 AM 41.2111 -81.4975 115° Southeast 470 541 24,000 -1,258 Descending Cleveland Center
Sun 10:17:26 AM 41.1522 -81.3314 115° Southeast 461 531 22,600 -1,500 Descending Cleveland Center
Sun 10:18:28 AM 41.1003 -81.1856 115° Southeast 437 503 20,900 -2,371 Descending Cleveland Center
Sun 10:19:30 AM 41.0397 -81.0392 119° Southeast 414 476 17,700 -3,000 Descending Cleveland Center
Sun 10:20:32 AM 40.9842 -80.9050 119° Southeast 415 478 14,700 -2,903 Descending Cleveland Center
Sun 10:21:34 AM 40.9286 -80.7731 119° Southeast 412 474 11,700 -2,226 Descending Cleveland Center
Sun 10:22:36 AM 40.8769 -80.6489 119° Southeast 390 449 10,100 -919 Descending Cleveland Center
Sun 10:23:38 AM 40.8053 -80.5581 136° Southeast 325 374 9,800 -816 Descending Cleveland Center
Sun 10:24:41 AM 40.7458 -80.4803 135° Southeast 302 348 8,400 -1,440 Descending Cleveland Center
Sun 10:25:43 AM 40.6883 -80.4033 135° Southeast 293 337 6,800 -1,161 Descending Cleveland Center
Sun 10:26:45 AM 40.6294 -80.3206 133° Southeast 283 326 6,000 -387 Descending Cleveland Center
Sun 10:27:47 AM 40.6000 -80.2450 117° Southeast 252 290 6,000 -290 Level Cleveland Center
Sun 10:28:49 AM 40.6042 -80.1558 86° East 246 283 5,400 -823 Descending Cleveland Center
Sun 10:29:51 AM 40.6086 -80.0689 86° East 243 280 4,300 -677 Descending Cleveland Center
Sun 10:30:53 AM 40.5953 -79.9906 103° East 228 262 4,000 -242 Descending Cleveland Center
Sun 10:31:55 AM 40.5358 -79.9806 173° South 215 247 3,800 -484 Descending Cleveland Center
Sun 10:32:57 AM 40.4786 -80.0033 197° South 199 229 3,000 -387 Descending Cleveland Center
Sun 10:33:59 AM 40.4972 -80.0631 292° West 180 207 3,000 -48 Level Cleveland Center
Sun 10:35:01 AM 40.4992 -80.1183 273° West 157 181 2,900 -290 Descending Cleveland Center
Sun 10:36:03 AM 40.5000 -80.1664 271° West 139 160 2,400 -581 Descending Cleveland Center
Sun 10:37:05 AM 40.5000 -80.2083 270° West 125 144 1,700 -677 Descending Cleveland Center

Login

Don't have an account? Register now (free) for customized features, flight alerts, and more!